Meteo Giornale » Osservazioni meteo Italia » Grazzanise

ore: 13:55 - Osservazioni Meteo Grazzanise
Lat. 41° 3' N Lon. 14° 4' E Alt. 9 metri s.l.m.

poco_nuvoloso Europe/Rome

18 °C

Poco Nuvoloso

Temp. 24 Ore

11 °C

20 °C

Nord

0 Km/h

Dew point 6 °C

Umidità 45 %

Visibilità  10 Km

Il sole sorge alle ore 06:51

Il sole tramonta alle ore 16:45

Data e Ora Cielo e Fenomeni T °C DP °C Um. % Pres. hPa Vis. km Vento km/h
Oggi h: 13:55 poco_nuvoloso Poco Nuvoloso 18 6 45 1017 10 N 0
Oggi h: 12:55 poco_nuvoloso Poco Nuvoloso 17 7 51 1018 10 N 0
Oggi h: 11:55 poco_nuvoloso Poco Nuvoloso 18 8 51 1019 10 N 0
Oggi h: 10:55 poco_nuvoloso Poco Nuvoloso 18 8 51 1019 10 N 0
Oggi h: 09:55 poco_nuvoloso Poco Nuvoloso 17 9 59 1019 10 N 0
Oggi h: 08:55 poco_nuvoloso Poco Nuvoloso 15 11 76 1019 10 N 0
Oggi h: 07:55 poco_nuvoloso Poco Nuvoloso 13 11 87 1019 10 N 0
Oggi h: 06:55 poco_nuvoloso Poco Nuvoloso 12 10 87 1019 10 N 0
Oggi h: 05:55 poco_nuvoloso Poco Nuvoloso 11 9 87 1019 10 N 0
Oggi h: 04:55 nuvoloso Nuvoloso 11 11 100 1019 10 N 0
Oggi h: 03:55 poco_nuvoloso Poco Nuvoloso 11 11 100 1019 10 N 0
Oggi h: 02:55 poco_nuvoloso Poco Nuvoloso 11 11 100 1020 10 N 0
Oggi h: 01:55 poco_nuvoloso Poco Nuvoloso 11 11 100 1020 10 N 0
Oggi h: 00:55 nuvoloso Nuvoloso 11 11 100 1020 10 N 0
Ieri h: 23:55 nuvoloso Nuvoloso 12 9 81 1020 10 N 0
Ieri h: 22:55 nuvoloso Nuvoloso 12 12 100 1020 10 N 0
Ieri h: 21:55 molto_nuvoloso Molto Nuvoloso 13 10 81 1020 10 N 0
Ieri h: 20:55 molto_nuvoloso Molto Nuvoloso 14 11 82 1020 10 N 0
Ieri h: 19:55 molto_nuvoloso Molto Nuvoloso 15 12 82 1020 10 N 0
Ieri h: 18:55 molto_nuvoloso Molto Nuvoloso 15 12 82 1020 10 N 0
Ieri h: 17:55 nuvoloso Nuvoloso 16 11 72 1020 10 N 0
Ieri h: 16:55 nuvoloso Nuvoloso 17 12 72 1020 10 N 0
Ieri h: 15:55 nuvoloso Nuvoloso 20 10 52 1020 10 N 0